createdAt,value
2018-03-21T00:00:14.775Z,4.10
2018-03-21T00:02:45.466Z,4.10
2018-03-21T00:05:14.297Z,4.10
2018-03-21T00:07:43.670Z,6.50
2018-03-21T00:10:11.690Z,4.20
2018-03-21T00:12:40.185Z,4.30
2018-03-21T00:15:08.137Z,4.20
2018-03-21T00:17:37.011Z,4.10
2018-03-21T00:20:05.394Z,4.20
2018-03-21T00:22:33.993Z,4.30
2018-03-21T00:25:03.518Z,4.30
2018-03-21T00:27:33.044Z,4.40
2018-03-21T00:30:01.850Z,4.30
2018-03-21T00:32:29.609Z,4.30
2018-03-21T00:34:57.201Z,4.30
2018-03-21T00:37:25.938Z,4.30
2018-03-21T00:39:53.905Z,4.30
2018-03-21T00:42:22.573Z,4.40
2018-03-21T00:44:51.086Z,4.40
2018-03-21T00:47:18.648Z,4.40
2018-03-21T00:49:48.260Z,4.10
2018-03-21T00:52:17.701Z,4.20
2018-03-21T00:54:46.342Z,4.10
2018-03-21T00:57:14.111Z,4.20
2018-03-21T00:59:43.282Z,4.10
2018-03-21T01:02:11.326Z,4.10
2018-03-21T01:04:42.244Z,4.20
2018-03-21T01:07:10.484Z,4.10
2018-03-21T01:09:39.053Z,4.20
2018-03-21T01:12:08.917Z,4.20
2018-03-21T01:14:37.178Z,4.20
2018-03-21T01:17:05.705Z,3.90
2018-03-21T01:19:33.654Z,3.90
2018-03-21T01:22:03.934Z,3.80
2018-03-21T01:24:31.893Z,3.80
2018-03-21T01:27:02.159Z,3.70
2018-03-21T01:29:30.104Z,3.70
2018-03-21T01:31:57.638Z,3.70
2018-03-21T01:34:26.698Z,3.70
2018-03-21T01:36:55.413Z,3.60
2018-03-21T01:39:23.359Z,3.70
2018-03-21T01:41:50.879Z,3.70
2018-03-21T01:44:19.201Z,3.80
2018-03-21T01:46:47.125Z,3.70
2018-03-21T01:49:16.126Z,3.70
2018-03-21T01:51:44.427Z,3.70
2018-03-21T01:54:12.542Z,3.70
2018-03-21T01:56:43.142Z,3.70
2018-03-21T01:59:11.422Z,3.60
2018-03-21T02:01:38.953Z,3.80
2018-03-21T02:04:07.998Z,3.50
2018-03-21T02:06:36.493Z,3.40
2018-03-21T02:09:04.883Z,3.30
2018-03-21T02:11:34.017Z,3.30
2018-03-21T02:14:03.079Z,3.30
2018-03-21T02:16:30.648Z,3.30
2018-03-21T02:18:58.173Z,3.30
2018-03-21T02:21:26.975Z,3.10
2018-03-21T02:23:57.875Z,3.20
2018-03-21T02:26:26.185Z,3.20
2018-03-21T02:28:55.213Z,3.20
2018-03-21T02:31:22.764Z,3.10
2018-03-21T02:33:50.677Z,3.10
2018-03-21T02:36:19.478Z,3.10
2018-03-21T02:38:47.651Z,3.00
2018-03-21T02:41:16.134Z,3.00
2018-03-21T02:43:44.766Z,3.00
2018-03-21T02:46:12.359Z,2.90
2018-03-21T02:48:40.286Z,2.90
2018-03-21T02:51:09.134Z,2.80
2018-03-21T02:53:38.402Z,2.80
2018-03-21T02:56:06.098Z,2.80
2018-03-21T02:58:34.986Z,2.70
2018-03-21T03:01:03.430Z,2.70
2018-03-21T03:03:31.749Z,2.70
2018-03-21T03:05:59.346Z,2.60
2018-03-21T03:08:27.696Z,2.60
2018-03-21T03:10:57.865Z,2.60
2018-03-21T03:13:26.699Z,2.50
2018-03-21T03:15:54.277Z,2.50
2018-03-21T03:18:22.091Z,2.50
2018-03-21T07:06:00.400Z,2.40
2018-03-21T07:08:29.184Z,2.60
2018-03-21T07:10:57.363Z,2.80
2018-03-21T07:13:25.789Z,2.80
2018-03-21T07:16:06.022Z,2.90
2018-03-21T07:18:33.993Z,2.90
2018-03-21T07:21:02.385Z,2.90
2018-03-21T07:23:30.253Z,2.90
2018-03-21T07:25:58.801Z,3.00
2018-03-21T07:28:27.619Z,3.10
2018-03-21T07:31:05.383Z,3.20
2018-03-21T07:33:34.450Z,3.30
2018-03-21T07:36:02.458Z,3.40
2018-03-21T07:38:30.840Z,3.40
2018-03-21T07:40:58.482Z,3.50
2018-03-21T07:43:26.099Z,3.40
2018-03-21T07:45:54.712Z,3.40
2018-03-21T07:48:23.080Z,3.50
2018-03-21T07:50:54.645Z,3.60
2018-03-21T07:53:23.845Z,3.70
2018-03-21T07:55:51.427Z,3.80
2018-03-21T07:58:19.797Z,3.80
2018-03-21T08:00:48.353Z,3.70
2018-03-21T08:03:16.357Z,3.80
2018-03-21T08:05:44.806Z,3.90
2018-03-21T08:08:13.508Z,3.80
2018-03-21T08:10:41.865Z,3.80
2018-03-21T08:13:10.299Z,4.00
2018-03-21T08:15:38.268Z,4.10
2018-03-21T08:18:06.685Z,4.20
2018-03-21T08:20:35.274Z,4.50
2018-03-21T08:23:03.899Z,4.60
2018-03-21T08:25:31.893Z,4.20
2018-03-21T08:27:59.863Z,4.10
2018-03-21T08:30:27.484Z,4.10
2018-03-21T08:32:55.921Z,4.00
2018-03-21T08:35:25.322Z,4.20
2018-03-21T08:37:54.256Z,4.50
2018-03-21T08:40:21.864Z,4.70
2018-03-21T08:42:50.189Z,4.90
2018-03-21T08:45:17.816Z,5.10
2018-03-21T08:47:45.386Z,4.80
2018-03-21T08:50:12.993Z,4.90
2018-03-21T08:52:41.138Z,4.80
2018-03-21T08:55:09.191Z,5.00
2018-03-21T08:57:37.736Z,5.00
2018-03-21T09:00:06.143Z,5.20
2018-03-21T09:02:34.093Z,5.30
2018-03-21T09:05:02.009Z,5.10
2018-03-21T09:07:29.942Z,5.10
2018-03-21T09:09:58.348Z,4.80
2018-03-21T09:12:26.336Z,4.80
2018-03-21T09:14:54.694Z,4.90
2018-03-21T09:17:23.145Z,5.00
2018-03-21T09:19:51.135Z,4.40
2018-03-21T09:22:19.480Z,4.20
2018-03-21T09:24:47.067Z,4.40
2018-03-21T09:27:15.127Z,4.70
2018-03-21T09:29:43.440Z,4.90
2018-03-21T09:32:12.097Z,5.00
2018-03-21T09:34:40.565Z,4.90
2018-03-21T09:37:08.565Z,5.10
2018-03-21T09:39:36.559Z,5.50
2018-03-21T09:42:05.556Z,5.70
2018-03-21T09:44:33.857Z,5.70
2018-03-21T09:47:02.265Z,5.70
2018-03-21T09:49:30.263Z,5.90
2018-03-21T09:51:57.822Z,5.90
2018-03-21T09:54:25.406Z,6.00
2018-03-21T09:56:53.055Z,6.20
2018-03-21T09:59:20.691Z,6.00
2018-03-21T10:01:49.167Z,5.80
2018-03-21T10:04:18.014Z,5.90
2018-03-21T10:06:46.232Z,6.00
2018-03-21T10:09:14.206Z,5.90
2018-03-21T10:11:42.576Z,6.00
2018-03-21T10:14:11.019Z,5.90
2018-03-21T10:16:39.836Z,5.80
2018-03-21T10:19:08.567Z,5.70
2018-03-21T10:21:36.143Z,5.70
2018-03-21T10:24:04.476Z,5.90
2018-03-21T10:26:32.596Z,6.30
2018-03-21T10:29:00.925Z,6.40
2018-03-21T10:31:28.905Z,6.40
2018-03-21T10:33:57.751Z,6.10
2018-03-21T10:36:25.522Z,5.90
2018-03-21T10:38:54.055Z,5.80
2018-03-21T10:41:21.665Z,6.10
2018-03-21T10:43:49.666Z,6.40
2018-03-21T10:46:17.258Z,6.70
2018-03-21T10:48:44.819Z,6.70
2018-03-21T10:51:13.965Z,6.50
2018-03-21T10:53:41.875Z,6.50
2018-03-21T10:56:09.462Z,6.80
2018-03-21T10:58:37.803Z,6.80
2018-03-21T11:01:11.154Z,6.90
2018-03-21T11:03:38.945Z,6.80
2018-03-21T11:06:07.045Z,7.40
2018-03-21T11:08:34.737Z,7.60
2018-03-21T11:11:02.380Z,8.00
2018-03-21T11:13:30.009Z,8.10
2018-03-21T11:16:00.029Z,8.30
2018-03-21T11:18:27.753Z,8.40
2018-03-21T11:20:55.780Z,8.40
2018-03-21T11:23:23.369Z,8.40
2018-03-21T11:25:51.769Z,9.10
2018-03-21T11:28:19.374Z,9.20
2018-03-21T11:30:47.013Z,9.30
2018-03-21T11:33:14.718Z,9.30
2018-03-21T11:35:42.283Z,9.80
2018-03-21T11:38:09.903Z,9.80
2018-03-21T11:40:37.456Z,10.00
2018-03-21T11:43:05.126Z,10.20
2018-03-21T11:45:32.745Z,10.10
2018-03-21T11:48:00.732Z,10.00
2018-03-21T11:50:28.600Z,10.00
2018-03-21T11:52:56.206Z,10.20
2018-03-21T11:55:23.794Z,10.20
2018-03-21T11:57:58.501Z,10.70
2018-03-21T12:00:26.065Z,10.90
2018-03-21T12:02:53.655Z,11.00
2018-03-21T12:05:21.225Z,11.10
2018-03-21T12:07:48.848Z,11.10
2018-03-21T12:10:17.200Z,11.30
2018-03-21T12:12:44.815Z,11.30
2018-03-21T12:15:12.372Z,11.40
2018-03-21T12:17:39.989Z,12.00
2018-03-21T12:20:08.187Z,12.00
2018-03-21T12:22:36.565Z,12.30
2018-03-21T12:25:04.962Z,12.60
2018-03-21T12:27:32.588Z,12.60
2018-03-21T12:30:00.178Z,12.80
2018-03-21T12:32:28.914Z,13.10
2018-03-21T12:34:57.076Z,13.00
2018-03-21T12:37:25.494Z,13.90
2018-03-21T12:39:53.058Z,13.80
2018-03-21T12:42:20.658Z,14.10
2018-03-21T12:44:48.293Z,14.10
2018-03-21T12:47:17.375Z,14.50
2018-03-21T12:49:45.037Z,14.20
2018-03-21T12:52:12.688Z,14.30
2018-03-21T12:54:40.307Z,14.60
2018-03-21T12:57:08.346Z,14.90
2018-03-21T12:59:36.385Z,15.00
2018-03-21T13:02:04.004Z,15.00
2018-03-21T13:04:31.616Z,15.10
2018-03-21T13:06:59.186Z,15.40
2018-03-21T13:09:27.005Z,15.50
2018-03-21T13:11:54.677Z,15.70
2018-03-21T13:14:22.289Z,15.70
2018-03-21T13:16:50.062Z,16.10
2018-03-21T13:19:17.644Z,15.60
2018-03-21T13:21:45.722Z,15.60
2018-03-21T13:24:13.357Z,15.60
2018-03-21T13:26:41.079Z,15.50
2018-03-21T13:29:08.816Z,15.90
2018-03-21T13:31:37.202Z,16.20
2018-03-21T13:34:05.043Z,16.00
2018-03-21T13:36:32.806Z,16.00
2018-03-21T13:39:00.408Z,16.70
2018-03-21T13:41:28.838Z,16.90
2018-03-21T13:43:56.447Z,17.10
2018-03-21T13:46:24.743Z,16.60
2018-03-21T13:48:53.035Z,16.20
2018-03-21T13:51:21.477Z,15.90
2018-03-21T13:53:49.485Z,15.40
2018-03-21T13:56:17.048Z,15.30
2018-03-21T13:58:44.694Z,15.90
2018-03-21T14:01:12.279Z,16.20
2018-03-21T14:03:39.933Z,16.70
2018-03-21T14:06:07.630Z,16.80
2018-03-21T14:08:35.254Z,17.40
2018-03-21T14:11:02.875Z,18.00
2018-03-21T14:13:30.806Z,18.00
2018-03-21T14:15:58.428Z,18.10
2018-03-21T14:18:26.397Z,17.90
2018-03-21T14:20:54.011Z,17.80
2018-03-21T14:23:21.653Z,18.10
2018-03-21T14:25:49.254Z,18.10
2018-03-21T14:28:17.614Z,17.60
2018-03-21T14:30:45.372Z,17.70
2018-03-21T14:33:12.944Z,17.60
2018-03-21T14:35:40.879Z,17.70
2018-03-21T14:38:08.505Z,17.70
2018-03-21T14:40:36.873Z,17.50
2018-03-21T14:43:04.497Z,17.70
2018-03-21T14:45:32.126Z,17.70
2018-03-21T14:47:59.770Z,18.00
2018-03-21T14:50:28.120Z,18.90
2018-03-21T14:52:55.703Z,19.30
2018-03-21T14:55:23.499Z,19.30
2018-03-21T14:57:51.171Z,19.20
2018-03-21T15:00:18.824Z,15.30
2018-03-21T15:02:47.266Z,19.00
2018-03-21T15:05:14.897Z,19.10
2018-03-21T15:07:42.454Z,18.90
2018-03-21T15:10:10.330Z,18.90
2018-03-21T15:12:38.455Z,18.70
2018-03-21T15:15:06.172Z,19.00
2018-03-21T15:17:34.768Z,19.00
2018-03-21T15:20:09.189Z,19.10
2018-03-21T15:22:37.591Z,19.30
2018-03-21T15:25:05.317Z,19.70
2018-03-21T15:27:33.122Z,19.70
2018-03-21T15:30:00.914Z,19.30
2018-03-21T15:32:28.557Z,19.30
2018-03-21T15:34:56.954Z,19.40
2018-03-21T15:37:24.844Z,19.50
2018-03-21T15:39:52.442Z,19.30
2018-03-21T15:42:20.228Z,19.30
2018-03-21T15:44:47.815Z,19.10
2018-03-21T15:47:15.951Z,19.10
2018-03-21T15:49:43.572Z,19.20
2018-03-21T15:52:12.031Z,19.30
2018-03-21T15:54:39.628Z,19.50
2018-03-21T15:57:08.557Z,19.40
2018-03-21T15:59:36.148Z,19.20
2018-03-21T16:02:05.380Z,19.30
2018-03-21T16:04:33.416Z,19.30
2018-03-21T16:07:01.248Z,18.90
2018-03-21T16:09:28.877Z,18.90
2018-03-21T16:11:56.461Z,18.90
2018-03-21T16:14:24.502Z,19.20
2018-03-21T16:16:52.190Z,19.10
2018-03-21T16:19:19.993Z,18.90
2018-03-21T16:21:47.579Z,18.90
2018-03-21T16:24:15.168Z,18.40
2018-03-21T16:26:42.819Z,18.40
2018-03-21T16:29:10.416Z,18.40
2018-03-21T16:31:38.185Z,18.30
2018-03-21T16:34:06.793Z,18.40
2018-03-21T16:36:34.496Z,18.20
2018-03-21T16:39:02.101Z,18.20
2018-03-21T16:41:29.740Z,17.90
2018-03-21T16:43:57.440Z,17.80
2018-03-21T16:46:25.804Z,17.70
2018-03-21T16:48:53.606Z,17.70
2018-03-21T16:51:21.215Z,17.30
2018-03-21T16:53:48.845Z,17.30
2018-03-21T16:56:16.539Z,17.00
2018-03-21T16:58:44.127Z,16.80
2018-03-21T17:01:12.483Z,16.30
2018-03-21T17:03:40.137Z,15.30
2018-03-21T17:06:08.291Z,14.20
2018-03-21T17:08:36.307Z,13.60
2018-03-21T17:11:04.965Z,12.80
2018-03-21T17:13:33.287Z,12.10
2018-03-21T17:16:01.426Z,11.40
2018-03-21T17:18:29.391Z,10.90
2018-03-21T17:20:57.859Z,10.70
2018-03-21T17:23:26.212Z,10.60
2018-03-21T17:25:54.679Z,10.40
2018-03-21T17:28:23.028Z,10.40
2018-03-21T17:30:51.402Z,10.10
2018-03-21T17:33:19.820Z,9.90
2018-03-21T17:35:48.539Z,9.60
2018-03-21T17:38:16.779Z,9.40
2018-03-21T17:40:45.148Z,9.30
2018-03-21T17:43:13.505Z,9.10
2018-03-21T17:45:41.564Z,9.00
2018-03-21T17:48:09.613Z,8.90
2018-03-21T17:50:38.094Z,8.80
2018-03-21T17:53:06.434Z,8.70
2018-03-21T17:55:34.579Z,8.40
2018-03-21T17:58:02.208Z,8.30
2018-03-21T18:00:29.913Z,8.20
2018-03-21T18:02:58.407Z,8.10
2018-03-21T18:05:26.840Z,8.00
2018-03-21T18:07:54.810Z,8.00
2018-03-21T18:10:22.414Z,7.70
2018-03-21T18:12:50.647Z,7.50
2018-03-21T18:15:18.656Z,7.40
2018-03-21T18:17:47.074Z,7.20
2018-03-21T18:20:15.397Z,7.20
2018-03-21T18:22:43.147Z,7.10
2018-03-21T18:25:10.837Z,7.10
2018-03-21T18:27:38.881Z,6.90
2018-03-21T18:30:07.683Z,6.90
2018-03-21T18:32:36.124Z,6.90
2018-03-21T18:35:04.093Z,6.90
2018-03-21T18:37:32.562Z,6.70
2018-03-21T18:40:00.541Z,6.60
2018-03-21T18:42:29.277Z,6.50
2018-03-21T18:44:57.334Z,6.40
2018-03-21T18:47:25.804Z,6.20
2018-03-21T18:49:54.843Z,6.00
2018-03-21T18:52:22.484Z,6.00
2018-03-21T18:54:50.980Z,5.90
2018-03-21T18:57:18.644Z,5.90
2018-03-21T18:59:46.349Z,5.90
2018-03-21T19:02:15.245Z,5.80
2018-03-21T19:04:42.822Z,5.80
2018-03-21T19:07:11.478Z,5.90
2018-03-21T19:09:39.271Z,5.80
2018-03-21T19:12:07.631Z,5.80
2018-03-21T19:14:35.245Z,5.70
2018-03-21T19:17:03.813Z,5.50
2018-03-21T19:19:31.459Z,5.40
2018-03-21T19:21:59.460Z,5.40
2018-03-21T19:24:28.083Z,5.40
2018-03-21T19:26:56.435Z,5.40
2018-03-21T19:29:24.412Z,5.20
2018-03-21T19:31:52.088Z,5.00
2018-03-21T19:34:19.652Z,4.80
2018-03-21T19:36:48.717Z,4.80
2018-03-21T19:39:17.138Z,4.70
2018-03-21T19:41:44.901Z,4.80
2018-03-21T19:44:12.669Z,4.80
2018-03-21T19:46:41.015Z,4.80
2018-03-21T19:49:09.760Z,4.70
2018-03-21T19:51:38.123Z,4.70
2018-03-21T19:54:06.783Z,4.60
2018-03-21T19:56:37.671Z,4.60
2018-03-21T19:59:06.025Z,4.60
2018-03-21T20:01:33.990Z,4.60
2018-03-21T20:04:02.013Z,4.60
2018-03-21T20:06:30.463Z,4.60
2018-03-21T20:08:58.778Z,4.40
2018-03-21T20:11:26.352Z,4.40
2018-03-21T20:13:54.720Z,4.50
2018-03-21T20:16:24.021Z,4.50
2018-03-21T20:18:52.390Z,4.50
2018-03-21T20:21:20.738Z,4.50
2018-03-21T20:23:48.733Z,4.50
2018-03-21T20:26:16.934Z,4.50
2018-03-21T20:28:45.732Z,4.40
2018-03-21T20:31:13.382Z,4.40
2018-03-21T20:33:41.523Z,4.40
2018-03-21T20:36:09.720Z,4.40
2018-03-21T20:38:38.464Z,4.30
2018-03-21T20:41:06.863Z,4.30
2018-03-21T20:43:41.626Z,4.10
2018-03-21T20:46:10.014Z,4.10
2018-03-21T20:48:38.487Z,4.00
2018-03-21T20:51:06.452Z,4.00
2018-03-21T20:53:34.859Z,4.00
2018-03-21T20:56:03.476Z,4.10
2018-03-21T20:58:31.835Z,4.10
2018-03-21T21:01:00.182Z,4.00
2018-03-21T21:03:28.152Z,3.90
2018-03-21T21:05:55.799Z,3.80
2018-03-21T21:08:24.244Z,3.70
2018-03-21T21:10:51.877Z,3.80
2018-03-21T21:13:19.976Z,3.70
2018-03-21T21:15:49.532Z,3.70
2018-03-21T21:18:17.109Z,3.60
2018-03-21T21:20:45.284Z,3.70
2018-03-21T21:23:13.680Z,3.60
2018-03-21T21:25:41.893Z,3.70
2018-03-21T21:28:10.347Z,3.70
2018-03-21T21:30:39.021Z,3.80
2018-03-21T21:33:07.618Z,3.60
2018-03-21T21:35:35.287Z,3.50
2018-03-21T21:38:03.447Z,3.50
2018-03-21T21:40:31.278Z,3.40
2018-03-21T21:42:59.274Z,3.40
2018-03-21T21:45:27.264Z,3.30
2018-03-21T21:47:55.666Z,3.20
2018-03-21T21:50:23.705Z,3.30
2018-03-21T21:52:51.451Z,3.30
2018-03-21T21:55:19.609Z,3.30
2018-03-21T21:57:47.580Z,3.40
2018-03-21T22:00:15.968Z,3.40
2018-03-21T22:02:44.722Z,3.50
2018-03-21T22:05:12.600Z,5.70
2018-03-21T22:07:41.063Z,3.40
2018-03-21T22:10:09.396Z,3.40
2018-03-21T22:12:37.765Z,3.30
2018-03-21T22:15:06.382Z,3.10
2018-03-21T22:17:34.380Z,3.20
2018-03-21T22:20:02.754Z,3.10
2018-03-21T22:22:30.753Z,3.10
2018-03-21T22:24:59.283Z,3.00
2018-03-21T22:27:27.644Z,2.90
2018-03-21T22:29:55.666Z,2.90
2018-03-21T22:32:24.677Z,3.00
2018-03-21T22:34:52.632Z,2.90
2018-03-21T22:37:20.623Z,2.90
2018-03-21T22:39:48.290Z,2.90
2018-03-21T22:42:16.312Z,2.80
2018-03-21T22:44:45.244Z,2.90
2018-03-21T22:47:13.231Z,2.80
2018-03-21T22:49:41.914Z,2.80
2018-03-21T22:52:09.545Z,2.60
2018-03-21T22:54:37.189Z,2.70
2018-03-21T22:57:05.534Z,2.60
2018-03-21T22:59:33.178Z,2.40
2018-03-21T23:02:02.111Z,2.50
2018-03-21T23:04:29.746Z,2.60
2018-03-21T23:06:57.324Z,2.40
2018-03-21T23:09:25.262Z,2.40
2018-03-21T23:11:53.284Z,2.50
2018-03-21T23:14:21.701Z,2.30
2018-03-21T23:16:49.286Z,2.30
2018-03-21T23:19:17.276Z,2.30
2018-03-21T23:21:45.253Z,2.30
2018-03-21T23:24:12.862Z,2.50
2018-03-21T23:26:40.842Z,2.60
2018-03-21T23:29:08.860Z,2.60
2018-03-21T23:31:36.494Z,2.60
2018-03-21T23:34:05.783Z,2.50
2018-03-21T23:36:35.369Z,2.50
2018-03-21T23:39:03.049Z,2.40
2018-03-21T23:41:31.050Z,2.40
2018-03-21T23:43:58.717Z,2.40
2018-03-21T23:46:26.692Z,2.30
2018-03-21T23:48:54.280Z,2.20
2018-03-21T23:51:21.880Z,1.90
2018-03-21T23:53:50.255Z,2.00
2018-03-21T23:56:19.360Z,2.00
2018-03-21T23:58:47.490Z,1.90
